createdAt,value
2023-01-29T00:02:05.794Z,1.10
2023-01-29T00:04:33.816Z,1.10
2023-01-29T00:07:01.311Z,1.07
2023-01-29T00:09:31.343Z,1.13
2023-01-29T00:11:59.148Z,1.13
2023-01-29T00:14:27.482Z,1.16
2023-01-29T00:16:55.070Z,1.22
2023-01-29T00:19:22.621Z,1.24
2023-01-29T00:21:50.142Z,1.23
2023-01-29T00:24:17.755Z,1.25
2023-01-29T00:26:46.643Z,1.26
2023-01-29T00:29:14.657Z,1.28
2023-01-29T00:31:46.046Z,1.28
2023-01-29T00:34:13.748Z,1.31
2023-01-29T00:36:41.223Z,1.32
2023-01-29T00:39:11.345Z,1.29
2023-01-29T00:41:56.820Z,1.26
2023-01-29T00:44:43.435Z,1.30
2023-01-29T00:47:30.632Z,1.31
2023-01-29T00:49:58.639Z,1.35
2023-01-29T00:52:26.548Z,1.32
2023-01-29T00:54:55.365Z,1.35
2023-01-29T00:57:23.356Z,1.34
2023-01-29T00:59:52.457Z,1.31
2023-01-29T01:02:49.545Z,1.27
2023-01-29T01:05:18.817Z,1.31
2023-01-29T01:07:47.327Z,1.28
2023-01-29T01:10:22.315Z,1.29
2023-01-29T01:12:53.373Z,1.28
2023-01-29T01:15:23.457Z,1.25
2023-01-29T01:17:54.282Z,1.23
2023-01-29T01:20:21.949Z,1.04
2023-01-29T01:22:49.490Z,0.96
2023-01-29T01:25:17.532Z,0.88
2023-01-29T01:27:45.375Z,0.88
2023-01-29T01:30:16.218Z,0.83
2023-01-29T01:32:45.712Z,0.85
2023-01-29T01:35:14.695Z,0.86
2023-01-29T01:37:42.827Z,0.86
2023-01-29T01:40:18.453Z,0.88
2023-01-29T01:42:48.522Z,0.91
2023-01-29T01:45:21.202Z,0.88
2023-01-29T01:47:53.498Z,0.90
2023-01-29T01:50:25.606Z,0.77
2023-01-29T01:52:56.649Z,0.85
2023-01-29T01:55:27.430Z,0.88
2023-01-29T01:58:00.472Z,0.87
2023-01-29T02:00:28.130Z,0.95
2023-01-29T02:03:14.764Z,0.94
2023-01-29T02:06:00.369Z,0.95
2023-01-29T02:08:52.636Z,0.99
2023-01-29T02:11:20.759Z,0.99
2023-01-29T02:13:53.407Z,1.01
2023-01-29T02:16:21.692Z,1.00
2023-01-29T02:18:51.582Z,0.96
2023-01-29T02:21:42.504Z,1.00
2023-01-29T02:24:31.061Z,1.00
2023-01-29T02:27:06.965Z,1.02
2023-01-29T02:29:46.999Z,1.03
2023-01-29T02:32:22.043Z,1.06
2023-01-29T02:35:19.149Z,1.07
2023-01-29T02:37:56.211Z,1.02
2023-01-29T02:40:30.157Z,1.05
2023-01-29T02:43:03.962Z,1.06
2023-01-29T02:45:38.446Z,1.03
2023-01-29T02:48:06.805Z,1.06
2023-01-29T02:50:41.877Z,1.02
2023-01-29T02:53:13.942Z,1.04
2023-01-29T02:55:47.118Z,1.06
2023-01-29T02:58:19.711Z,1.04
2023-01-29T03:00:50.117Z,0.98
2023-01-29T03:03:21.375Z,0.95
2023-01-29T03:05:58.706Z,0.94
2023-01-29T03:08:43.079Z,0.95
2023-01-29T03:11:14.010Z,0.99
2023-01-29T03:13:46.238Z,1.01
2023-01-29T03:16:21.670Z,1.00
2023-01-29T03:19:02.745Z,1.00
2023-01-29T03:21:55.156Z,1.01
2023-01-29T03:24:49.320Z,1.03
2023-01-29T03:27:39.717Z,1.04
2023-01-29T03:30:29.650Z,1.02
2023-01-29T03:33:03.657Z,0.95
2023-01-29T03:35:36.464Z,0.95
2023-01-29T03:38:05.010Z,1.01
2023-01-29T03:40:41.035Z,1.07
2023-01-29T03:43:14.921Z,1.06
2023-01-29T03:45:56.157Z,1.12
2023-01-29T03:48:32.924Z,1.14
2023-01-29T03:51:05.696Z,1.10
2023-01-29T03:53:44.123Z,1.03
2023-01-29T03:56:28.471Z,1.01
2023-01-29T03:59:02.450Z,0.83
2023-01-29T04:01:34.416Z,0.77
2023-01-29T04:04:11.063Z,0.79
2023-01-29T04:06:43.677Z,0.85
2023-01-29T04:09:15.738Z,0.79
2023-01-29T04:11:48.674Z,0.70
2023-01-29T04:14:16.345Z,0.70
2023-01-29T04:16:49.565Z,0.81
2023-01-29T04:19:18.870Z,0.95
2023-01-29T04:21:49.863Z,0.96
2023-01-29T04:24:18.234Z,1.02
2023-01-29T04:26:56.888Z,1.07
2023-01-29T04:29:41.440Z,1.11
2023-01-29T04:32:16.025Z,1.09
2023-01-29T04:34:59.210Z,1.12
2023-01-29T04:37:36.190Z,1.07
2023-01-29T04:40:16.069Z,1.06
2023-01-29T04:42:51.081Z,1.11
2023-01-29T04:45:27.061Z,1.12
2023-01-29T04:48:04.650Z,1.10
2023-01-29T04:50:38.203Z,1.13
2023-01-29T04:53:11.937Z,1.13
2023-01-29T04:55:44.634Z,1.16
2023-01-29T04:58:17.751Z,1.18
2023-01-29T05:00:49.101Z,1.23
2023-01-29T05:03:17.430Z,1.22
2023-01-29T05:05:48.947Z,1.19
2023-01-29T05:08:21.376Z,1.19
2023-01-29T05:10:50.633Z,1.22
2023-01-29T05:13:20.582Z,1.24
2023-01-29T05:15:53.326Z,1.28
2023-01-29T05:18:21.317Z,1.28
2023-01-29T05:20:51.158Z,1.25
2023-01-29T05:23:20.529Z,1.32
2023-01-29T05:25:49.118Z,1.31
2023-01-29T05:28:16.373Z,1.22
2023-01-29T05:30:45.349Z,1.21
2023-01-29T05:33:15.321Z,1.27
2023-01-29T05:35:43.161Z,1.30
2023-01-29T05:38:12.314Z,1.28
2023-01-29T05:40:39.930Z,1.37
2023-01-29T05:43:14.614Z,1.34
2023-01-29T05:45:42.133Z,1.30
2023-01-29T05:48:09.676Z,1.34
2023-01-29T05:50:37.161Z,1.34
2023-01-29T05:53:05.675Z,1.26
2023-01-29T05:55:34.561Z,1.35
2023-01-29T05:58:03.186Z,1.38
2023-01-29T06:00:32.407Z,1.30
2023-01-29T06:03:00.223Z,1.34
2023-01-29T06:05:27.721Z,1.43
2023-01-29T06:07:55.256Z,1.39
2023-01-29T06:10:22.710Z,1.42
2023-01-29T06:12:51.529Z,1.26
2023-01-29T06:15:19.716Z,1.28
2023-01-29T06:17:47.234Z,1.33
2023-01-29T06:20:15.401Z,1.34
2023-01-29T06:22:43.165Z,1.43
2023-01-29T06:25:10.934Z,1.48
2023-01-29T06:27:38.480Z,1.55
2023-01-29T06:30:09.061Z,1.65
2023-01-29T06:32:36.702Z,1.70
2023-01-29T06:35:04.752Z,1.70
2023-01-29T06:37:32.250Z,1.58
2023-01-29T06:39:59.724Z,1.55
2023-01-29T06:42:27.956Z,1.59
2023-01-29T06:44:55.660Z,1.60
2023-01-29T06:47:25.126Z,1.57
2023-01-29T06:49:52.596Z,1.65
2023-01-29T06:52:20.182Z,1.63
2023-01-29T06:54:47.714Z,1.48
2023-01-29T06:57:15.218Z,1.53
2023-01-29T06:59:42.790Z,1.70
2023-01-29T07:02:10.306Z,1.63
2023-01-29T07:04:39.335Z,1.65
2023-01-29T07:07:12.662Z,1.61
2023-01-29T07:09:41.711Z,1.58
2023-01-29T07:12:09.798Z,1.61
2023-01-29T07:14:37.620Z,1.65
2023-01-29T07:17:05.133Z,1.60
2023-01-29T07:19:32.617Z,1.59
2023-01-29T07:22:02.362Z,1.54
2023-01-29T07:24:30.022Z,1.51
2023-01-29T07:26:57.769Z,1.59
2023-01-29T07:29:25.268Z,1.63
2023-01-29T07:31:52.905Z,1.60
2023-01-29T07:34:20.594Z,1.44
2023-01-29T07:36:48.085Z,1.39
2023-01-29T07:39:16.968Z,1.35
2023-01-29T07:41:44.505Z,1.36
2023-01-29T07:44:12.118Z,1.34
2023-01-29T07:46:39.585Z,1.45
2023-01-29T07:49:07.122Z,1.33
2023-01-29T07:51:34.627Z,1.36
2023-01-29T07:54:02.124Z,1.39
2023-01-29T07:56:30.988Z,1.37
2023-01-29T07:58:58.599Z,1.43
2023-01-29T08:01:26.128Z,1.49
2023-01-29T08:03:53.714Z,1.54
2023-01-29T08:06:21.199Z,1.39
2023-01-29T08:08:48.943Z,1.35
2023-01-29T08:11:16.495Z,1.39
2023-01-29T08:13:46.551Z,1.47
2023-01-29T08:16:14.145Z,1.56
2023-01-29T08:18:43.953Z,1.49
2023-01-29T08:21:13.074Z,1.32
2023-01-29T08:23:41.519Z,1.27
2023-01-29T08:26:09.601Z,1.26
2023-01-29T08:28:38.580Z,1.31
2023-01-29T08:31:14.510Z,1.37
2023-01-29T08:33:42.076Z,1.53
2023-01-29T08:36:10.816Z,1.53
2023-01-29T08:38:38.582Z,1.55
2023-01-29T08:41:06.484Z,1.65
2023-01-29T08:43:35.185Z,1.64
2023-01-29T08:46:04.298Z,1.52
2023-01-29T08:48:33.425Z,1.43
2023-01-29T08:51:02.208Z,1.41
2023-01-29T08:53:29.762Z,1.29
2023-01-29T08:55:57.312Z,1.43
2023-01-29T08:58:24.795Z,1.66
2023-01-29T09:00:52.301Z,1.62
2023-01-29T09:03:19.839Z,1.72
2023-01-29T09:05:48.942Z,1.73
2023-01-29T09:08:16.448Z,1.66
2023-01-29T09:10:43.961Z,1.63
2023-01-29T09:13:11.458Z,1.57
2023-01-29T09:15:38.977Z,1.68
2023-01-29T09:18:06.991Z,1.79
2023-01-29T09:20:35.226Z,1.82
2023-01-29T09:23:06.760Z,1.65
2023-01-29T09:25:34.310Z,1.68
2023-01-29T09:28:01.817Z,1.75
2023-01-29T09:30:29.503Z,1.80
2023-01-29T09:32:57.000Z,1.85
2023-01-29T09:35:24.694Z,1.85
2023-01-29T09:37:53.330Z,2.01
2023-01-29T09:40:27.502Z,1.93
2023-01-29T09:43:00.393Z,2.05
2023-01-29T09:45:29.680Z,2.03
2023-01-29T09:48:01.321Z,2.11
2023-01-29T09:50:33.269Z,2.04
2023-01-29T09:53:05.774Z,1.90
2023-01-29T09:55:40.278Z,1.85
2023-01-29T09:58:15.190Z,1.76
2023-01-29T10:00:51.466Z,1.68
2023-01-29T10:03:36.246Z,1.65
2023-01-29T10:06:21.203Z,1.76
2023-01-29T10:09:04.719Z,1.74
2023-01-29T10:11:46.273Z,1.80
2023-01-29T10:14:22.682Z,1.76
2023-01-29T10:17:05.375Z,1.76
2023-01-29T10:19:55.985Z,1.85
2023-01-29T10:22:36.773Z,1.86
2023-01-29T10:25:05.969Z,1.99
2023-01-29T10:27:38.484Z,2.04
2023-01-29T10:30:09.971Z,2.07
2023-01-29T10:32:38.447Z,2.18
2023-01-29T10:35:21.112Z,2.16
2023-01-29T10:37:48.938Z,2.12
2023-01-29T10:40:21.001Z,2.17
2023-01-29T10:42:57.702Z,2.03
2023-01-29T10:45:33.362Z,1.95
2023-01-29T10:48:43.508Z,1.97
2023-01-29T10:51:24.125Z,2.11
2023-01-29T10:54:05.182Z,2.12
2023-01-29T10:56:53.385Z,2.37
2023-01-29T10:59:39.893Z,2.58
2023-01-29T11:02:17.801Z,2.50
2023-01-29T11:04:45.921Z,2.61
2023-01-29T11:07:14.775Z,2.55
2023-01-29T11:09:47.293Z,2.65
2023-01-29T11:12:17.456Z,2.55
2023-01-29T11:14:51.611Z,2.67
2023-01-29T11:17:20.185Z,2.55
2023-01-29T11:19:51.104Z,2.64
2023-01-29T11:22:20.783Z,2.72
2023-01-29T11:25:07.830Z,2.94
2023-01-29T11:27:39.942Z,2.87
2023-01-29T11:30:17.604Z,2.98
2023-01-29T11:32:45.331Z,2.87
2023-01-29T11:35:21.831Z,2.99
2023-01-29T11:37:49.333Z,3.04
2023-01-29T11:40:37.756Z,2.95
2023-01-29T11:43:23.484Z,2.97
2023-01-29T11:45:56.154Z,2.96
2023-01-29T11:48:28.273Z,2.97
2023-01-29T11:51:00.461Z,2.74
2023-01-29T11:53:38.058Z,2.87
2023-01-29T11:56:16.719Z,2.93
2023-01-29T11:58:45.928Z,3.02
2023-01-29T12:01:16.982Z,2.97
2023-01-29T12:03:49.412Z,2.72
2023-01-29T12:06:21.105Z,2.64
2023-01-29T12:08:57.885Z,2.85
2023-01-29T12:11:28.914Z,2.97
2023-01-29T12:13:58.162Z,3.04
2023-01-29T12:16:32.943Z,3.08
2023-01-29T12:19:11.359Z,3.26
2023-01-29T12:21:47.127Z,3.34
2023-01-29T12:24:26.024Z,3.29
2023-01-29T12:27:01.190Z,3.25
2023-01-29T12:29:38.482Z,3.11
2023-01-29T12:32:19.243Z,3.04
2023-01-29T12:34:52.099Z,3.19
2023-01-29T12:37:25.738Z,3.36
2023-01-29T12:39:53.435Z,3.46
2023-01-29T12:42:22.678Z,3.44
2023-01-29T12:44:54.437Z,3.36
2023-01-29T12:47:28.407Z,3.38
2023-01-29T12:49:58.796Z,3.38
2023-01-29T12:52:37.434Z,3.57
2023-01-29T12:55:12.496Z,3.68
2023-01-29T12:57:46.872Z,3.58
2023-01-29T13:00:20.069Z,3.56
2023-01-29T13:02:57.526Z,3.41
2023-01-29T13:05:28.072Z,3.54
2023-01-29T13:07:59.711Z,3.46
2023-01-29T13:10:34.022Z,3.34
2023-01-29T13:13:06.463Z,3.46
2023-01-29T13:15:37.324Z,3.59
2023-01-29T13:18:31.839Z,3.51
2023-01-29T13:21:00.355Z,3.64
2023-01-29T13:23:34.822Z,3.68
2023-01-29T13:26:02.656Z,3.74
2023-01-29T13:28:30.484Z,3.82
2023-01-29T13:31:25.202Z,3.83
2023-01-29T13:33:57.197Z,3.89
2023-01-29T13:36:29.234Z,3.56
2023-01-29T13:39:02.255Z,3.68
2023-01-29T13:41:35.540Z,3.68
2023-01-29T13:44:03.839Z,3.61
2023-01-29T13:46:33.056Z,3.67
2023-01-29T13:49:04.893Z,3.54
2023-01-29T13:51:37.218Z,3.41
2023-01-29T13:54:09.193Z,3.50
2023-01-29T13:56:47.746Z,3.66
2023-01-29T13:59:45.636Z,3.51
2023-01-29T14:02:28.777Z,3.73
2023-01-29T14:05:33.938Z,3.86
2023-01-29T14:08:02.921Z,3.96
2023-01-29T14:10:32.521Z,3.92
2023-01-29T14:13:35.720Z,3.82
2023-01-29T14:16:34.643Z,3.74
2023-01-29T14:19:05.730Z,3.55
2023-01-29T14:21:35.925Z,3.60
2023-01-29T14:24:13.035Z,3.48
2023-01-29T14:26:47.369Z,3.45
2023-01-29T14:29:32.649Z,3.33
2023-01-29T14:32:14.222Z,3.23
2023-01-29T14:34:48.026Z,3.10
2023-01-29T14:37:32.634Z,3.21
2023-01-29T14:40:15.205Z,3.22
2023-01-29T14:42:53.336Z,3.26
2023-01-29T14:45:27.051Z,3.33
2023-01-29T14:48:19.789Z,3.24
2023-01-29T14:51:05.459Z,3.21
2023-01-29T14:53:46.667Z,3.03
2023-01-29T14:56:18.324Z,3.18
2023-01-29T14:58:49.072Z,3.20
2023-01-29T15:01:24.409Z,3.22
2023-01-29T15:03:54.608Z,3.17
2023-01-29T15:06:32.823Z,3.10
2023-01-29T15:09:07.674Z,2.83
2023-01-29T15:11:42.890Z,2.96
2023-01-29T15:14:23.820Z,2.93
2023-01-29T15:17:19.108Z,3.01
2023-01-29T15:19:48.856Z,2.89
2023-01-29T15:22:19.409Z,2.83
2023-01-29T15:24:49.105Z,2.81
2023-01-29T15:27:19.647Z,2.79
2023-01-29T15:29:52.292Z,2.80
2023-01-29T15:32:30.509Z,2.71
2023-01-29T15:35:00.260Z,2.79
2023-01-29T15:37:32.354Z,2.81
2023-01-29T15:40:00.844Z,2.81
2023-01-29T15:42:29.954Z,2.64
2023-01-29T15:44:57.500Z,2.77
2023-01-29T15:47:29.253Z,2.76
2023-01-29T15:49:58.222Z,2.90
2023-01-29T15:52:30.256Z,3.09
2023-01-29T15:55:02.893Z,2.89
2023-01-29T15:57:35.258Z,2.82
2023-01-29T16:00:04.471Z,2.85
2023-01-29T16:02:40.914Z,2.88
2023-01-29T16:05:14.977Z,3.04
2023-01-29T16:07:45.256Z,2.79
2023-01-29T16:10:18.744Z,2.73
2023-01-29T16:12:51.250Z,2.94
2023-01-29T16:15:29.689Z,2.96
2023-01-29T16:17:57.624Z,3.14
2023-01-29T16:20:37.476Z,3.05
2023-01-29T16:23:07.896Z,3.06
2023-01-29T16:25:39.178Z,3.09
2023-01-29T16:28:10.896Z,3.06
2023-01-29T16:30:39.622Z,3.06
2023-01-29T16:33:09.026Z,3.09
2023-01-29T16:35:37.060Z,3.00
2023-01-29T16:38:08.459Z,3.04
2023-01-29T16:40:38.808Z,2.86
2023-01-29T16:43:49.343Z,2.78
2023-01-29T16:46:27.251Z,2.85
2023-01-29T16:48:55.166Z,2.58
2023-01-29T16:51:26.902Z,2.69
2023-01-29T16:53:59.791Z,2.69
2023-01-29T16:56:30.639Z,2.68
2023-01-29T16:58:59.042Z,2.56
2023-01-29T17:01:29.817Z,2.70
2023-01-29T17:04:07.507Z,2.65
2023-01-29T17:06:35.931Z,2.60
2023-01-29T17:09:06.088Z,2.63
2023-01-29T17:11:37.183Z,2.49
2023-01-29T17:14:06.561Z,2.51
2023-01-29T17:16:37.368Z,2.52
2023-01-29T17:19:17.646Z,2.48
2023-01-29T17:21:45.207Z,2.50
2023-01-29T17:24:14.032Z,2.48
2023-01-29T17:26:42.095Z,2.70
2023-01-29T17:29:15.348Z,2.76
2023-01-29T17:31:42.941Z,2.80
2023-01-29T17:34:14.236Z,2.85
2023-01-29T17:36:41.854Z,2.93
2023-01-29T17:39:17.782Z,3.04
2023-01-29T17:41:48.155Z,3.05
2023-01-29T17:44:15.934Z,3.13
2023-01-29T17:46:43.858Z,3.04
2023-01-29T17:49:22.584Z,3.01
2023-01-29T17:51:50.534Z,3.01
2023-01-29T17:54:19.445Z,3.04
2023-01-29T17:56:47.086Z,3.08
2023-01-29T17:59:15.636Z,3.05
2023-01-29T18:01:43.511Z,2.93
2023-01-29T18:04:11.113Z,2.84
2023-01-29T18:06:39.782Z,2.88
2023-01-29T18:09:07.420Z,2.96
2023-01-29T18:11:36.316Z,3.05
2023-01-29T18:14:13.614Z,3.12
2023-01-29T18:16:43.014Z,3.19
2023-01-29T18:19:15.549Z,3.17
2023-01-29T18:21:43.037Z,3.13
2023-01-29T18:24:10.600Z,3.00
2023-01-29T18:26:39.804Z,2.98
2023-01-29T18:29:07.292Z,2.98
2023-01-29T18:31:34.843Z,2.95
2023-01-29T18:34:02.353Z,2.82
2023-01-29T18:36:29.919Z,2.57
2023-01-29T18:38:57.742Z,2.61
2023-01-29T18:41:25.457Z,2.61
2023-01-29T18:43:54.275Z,2.53
2023-01-29T18:46:24.082Z,2.54
2023-01-29T18:48:51.683Z,2.48
2023-01-29T18:51:19.207Z,2.46
2023-01-29T18:53:50.415Z,2.54
2023-01-29T18:56:18.240Z,2.61
2023-01-29T18:58:52.065Z,2.66
2023-01-29T19:01:21.914Z,2.77
2023-01-29T19:03:49.442Z,2.71
2023-01-29T19:06:17.076Z,2.67
2023-01-29T19:08:44.686Z,2.77
2023-01-29T19:11:12.746Z,2.65
2023-01-29T19:13:42.384Z,2.61
2023-01-29T19:16:10.656Z,2.77
2023-01-29T19:18:39.480Z,2.85
2023-01-29T19:21:08.658Z,2.73
2023-01-29T19:23:36.150Z,2.89
2023-01-29T19:26:03.711Z,2.84
2023-01-29T19:28:31.156Z,2.92
2023-01-29T19:30:58.775Z,2.72
2023-01-29T19:33:27.579Z,2.55
2023-01-29T19:35:57.680Z,2.67
2023-01-29T19:38:25.813Z,2.82
2023-01-29T19:40:54.980Z,2.79
2023-01-29T19:43:22.487Z,2.74
2023-01-29T19:45:50.946Z,2.63
2023-01-29T19:48:21.088Z,2.53
2023-01-29T19:50:52.619Z,2.58
2023-01-29T19:53:22.725Z,2.46
2023-01-29T19:55:58.326Z,2.56
2023-01-29T19:58:26.020Z,2.44
2023-01-29T20:00:57.751Z,2.45
2023-01-29T20:03:25.660Z,2.46
2023-01-29T20:05:53.306Z,2.56
2023-01-29T20:08:22.250Z,2.62
2023-01-29T20:10:50.345Z,2.63
2023-01-29T20:13:17.902Z,2.63
2023-01-29T20:15:46.465Z,2.64
2023-01-29T20:18:14.347Z,2.68
2023-01-29T20:20:42.894Z,2.83
2023-01-29T20:23:11.012Z,2.77
2023-01-29T20:25:40.358Z,2.75
2023-01-29T20:28:11.490Z,2.62
2023-01-29T20:30:40.153Z,2.58
2023-01-29T20:33:08.388Z,2.44
2023-01-29T20:35:37.180Z,2.45
2023-01-29T20:38:05.929Z,2.40
2023-01-29T20:40:33.455Z,2.40
2023-01-29T20:43:02.311Z,2.48
2023-01-29T20:45:32.821Z,2.49
2023-01-29T20:48:00.306Z,2.58
2023-01-29T20:50:27.914Z,2.51
2023-01-29T20:52:55.375Z,2.45
2023-01-29T20:55:22.927Z,2.43
2023-01-29T20:58:05.823Z,2.22
2023-01-29T21:00:35.678Z,2.40
2023-01-29T21:03:03.266Z,2.38
2023-01-29T21:05:30.756Z,2.40
2023-01-29T21:07:58.294Z,2.42
2023-01-29T21:10:25.751Z,2.43
2023-01-29T21:12:54.501Z,2.46
2023-01-29T21:15:23.304Z,2.64
2023-01-29T21:17:52.562Z,2.66
2023-01-29T21:20:20.345Z,2.80
2023-01-29T21:22:49.135Z,2.61
2023-01-29T21:25:20.027Z,2.66
2023-01-29T21:27:47.565Z,2.67
2023-01-29T21:30:15.547Z,2.61
2023-01-29T21:32:43.146Z,2.65
2023-01-29T21:35:12.167Z,2.65
2023-01-29T21:37:39.707Z,2.55
2023-01-29T21:40:09.110Z,2.63
2023-01-29T21:42:54.104Z,2.72
2023-01-29T21:45:21.689Z,2.63
2023-01-29T21:47:49.279Z,2.77
2023-01-29T21:50:18.905Z,2.88
2023-01-29T21:52:46.489Z,2.87
2023-01-29T21:55:14.058Z,2.79
2023-01-29T21:57:42.907Z,3.03
2023-01-29T22:00:12.383Z,3.01
2023-01-29T22:02:40.195Z,3.17
2023-01-29T22:05:18.629Z,3.09
2023-01-29T22:07:49.272Z,2.94
2023-01-29T22:10:17.960Z,2.98
2023-01-29T22:12:46.045Z,3.13
2023-01-29T22:15:14.898Z,3.17
2023-01-29T22:17:42.571Z,3.19
2023-01-29T22:20:11.947Z,3.26
2023-01-29T22:22:39.469Z,3.27
2023-01-29T22:25:09.412Z,3.33
2023-01-29T22:27:36.994Z,3.17
2023-01-29T22:30:05.066Z,3.22
2023-01-29T22:32:33.208Z,3.15
2023-01-29T22:35:00.846Z,3.05
2023-01-29T22:37:28.435Z,3.26
2023-01-29T22:39:55.920Z,3.11
2023-01-29T22:42:24.751Z,3.15
2023-01-29T22:44:52.244Z,2.98
2023-01-29T22:47:19.837Z,3.18
2023-01-29T22:49:49.902Z,3.18
2023-01-29T22:52:21.079Z,3.33
2023-01-29T22:54:48.611Z,3.32
2023-01-29T22:57:16.666Z,3.41
2023-01-29T22:59:45.934Z,3.31
2023-01-29T23:02:13.399Z,3.29
2023-01-29T23:04:40.938Z,3.14
2023-01-29T23:07:08.420Z,3.16
2023-01-29T23:09:35.906Z,3.15
2023-01-29T23:12:03.400Z,3.26
2023-01-29T23:14:30.884Z,3.09
2023-01-29T23:16:59.708Z,3.26
2023-01-29T23:19:27.253Z,3.30
2023-01-29T23:21:54.733Z,3.29
2023-01-29T23:24:22.451Z,3.33
2023-01-29T23:27:07.476Z,3.30
2023-01-29T23:29:34.953Z,3.24
2023-01-29T23:32:04.411Z,3.28
2023-01-29T23:34:31.924Z,3.29
2023-01-29T23:36:59.800Z,3.34
2023-01-29T23:39:27.344Z,3.48
2023-01-29T23:41:54.848Z,3.32
2023-01-29T23:44:22.364Z,3.04
2023-01-29T23:46:49.952Z,3.10
2023-01-29T23:49:19.374Z,3.12
2023-01-29T23:51:48.588Z,3.37
2023-01-29T23:54:16.435Z,3.45
2023-01-29T23:56:44.434Z,3.31
2023-01-29T23:59:12.196Z,2.88
